• Join FlightAware (Why Join?)
  • Login
  • US Flag 
04:05PM EDT


 

Airport Tracker/Info


-or-


 

Live Flight TrackerFlight Track Log ✈ UCA4771 ✈ 02-Nov-2013 ✈ KEWR - KSYR

Flight Track Log - Related Links

Times and Time Zones

All times are in EDT time to prevent confusion due to time zone crossing. See the UCA4771 flight status page for this flight to view local times or setup timezone preferences in your user account.

Time Position Orientation Groundspeed Altitude Reporting Facility
EDT Latitude Longitude Course Direction KTS MPH feet Rate Location/Type
08:46AM 41.2885 -74.6303 330° Northwest  Level Estimated
08:47AM 41.3381 -74.6692 330° Northwest  Level Estimated
08:48AM 41.3877 -74.7081 330° Northwest  Level Estimated
08:49AM 41.4372 -74.7471 329° Northwest  Level Estimated
08:50AM 41.4868 -74.7861 329° Northwest  Level Estimated
08:51AM 41.5363 -74.8252 329° Northwest  Level Estimated
08:52AM 41.5858 -74.8643 329° Northwest  Level Estimated
08:53AM 41.6354 -74.9036 329° Northwest  Level Estimated
08:54AM 41.6848 -74.9428 329° Northwest  Level Estimated
08:55AM 41.7343 -74.9822 329° Northwest  Level Estimated
08:56AM 41.7838 -75.0216 329° Northwest  Level Estimated
08:57AM 41.8332 -75.0610 329° Northwest  Level Estimated
08:58AM 41.8827 -75.1005 329° Northwest  Level Estimated
08:59AM 41.9321 -75.1401 329° Northwest  Level Estimated
09:00AM 41.9815 -75.1797 329° Northwest  Level Estimated
09:01AM 42.0309 -75.2194 329° Northwest  Level Estimated
09:02AM 42.0803 -75.2592 329° Northwest  Level Estimated
09:03AM 42.1297 -75.2990 329° Northwest  Level Estimated
09:04AM 42.1790 -75.3389 329° Northwest  Level Estimated
09:05AM 42.2284 -75.3789 329° Northwest  Level Estimated
09:06AM 42.2777 -75.4189 329° Northwest  Level Estimated
09:07AM 42.3270 -75.4589 329° Northwest  Level Estimated
09:08AM 42.3763 -75.4991 329° Northwest  Level Estimated
09:09AM 42.4256 -75.5393 329° Northwest  Level Estimated
09:10AM 42.4749 -75.5795 329° Northwest  Level Estimated
09:11AM 42.5241 -75.6198 329° Northwest  Level Estimated
09:12AM 42.5734 -75.6602 329° Northwest  Level Estimated
09:13AM 42.6226 -75.7007 329° Northwest  Level Estimated
09:14AM 42.6718 -75.7412 329° Northwest  Level Estimated
09:15AM 42.7210 -75.7818 329° Northwest  Level Estimated
09:16AM 42.7702 -75.8224 329° Northwest  Level Estimated
09:17AM 42.8194 -75.8631 329° Northwest  Level Estimated
09:18AM 42.8685 -75.9039 329° Northwest  Level Estimated
09:19AM 42.9177 -75.9447 329° Northwest  Level Estimated
09:20AM 42.9668 -75.9856 329° Northwest  Level Estimated
09:21AM 43.0159 -76.0266 329° Northwest  Level Estimated
09:22AM 43.0650 -76.0676 329° Northwest  Level Estimated
09:23AM 43.1112 -76.1063 329° Northwest  Level Estimated
09:24AM 43.1112 -76.1063 36° Northeast  Level Estimated
09:25AM 43.1112 -76.1063 36° Northeast  Level Estimated
09:26AM 43.1112 -76.1063 36° Northeast  Level Estimated
09:27AM 43.1112 -76.1063 36° Northeast  Level Estimated
09:28AM 43.1112 -76.1063 36° Northeast  Level Estimated
09:29AM 43.1112 -76.1063 36° Northeast  Level Estimated
09:30AM 43.1112 -76.1063 36° Northeast  Level Estimated
09:31AM 43.1112 -76.1063 36° Northeast  Level Estimated
09:32AM 43.1112 -76.1063 36° Northeast  Level Estimated
09:33AM 43.1112 -76.1063 36° Northeast  Level Estimated
09:34AM 43.1112 -76.1063 36° Northeast  Level Estimated
09:35AM 43.1112 -76.1063 36° Northeast  Level Estimated
09:36AM 43.1112 -76.1063 36° Northeast  Level Estimated
09:37AM 43.1112 -76.1063 36° Northeast  Level Estimated
09:38AM 43.1112 -76.1063 36° Northeast  Level Estimated
09:39AM 43.1112 -76.1063 36° Northeast  Level Estimated